createdAt,value
2018-03-11T00:02:19.337Z,28.07
2018-03-11T00:04:46.433Z,26.20
2018-03-11T00:07:14.591Z,27.73
2018-03-11T00:09:41.627Z,28.57
2018-03-11T00:12:10.262Z,28.00
2018-03-11T00:14:38.095Z,28.10
2018-03-11T00:17:06.476Z,25.67
2018-03-11T00:19:33.426Z,26.10
2018-03-11T00:22:00.466Z,26.17
2018-03-11T00:24:27.845Z,25.17
2018-03-11T00:26:54.833Z,24.80
2018-03-11T00:29:21.618Z,25.97
2018-03-11T00:31:48.400Z,25.57
2018-03-11T00:34:16.337Z,23.67
2018-03-11T00:36:43.226Z,36.67
2018-03-11T00:39:09.998Z,26.63
2018-03-11T00:41:36.763Z,28.27
2018-03-11T00:44:03.526Z,25.70
2018-03-11T00:46:30.294Z,36.13
2018-03-11T00:48:57.080Z,46.97
2018-03-11T00:51:23.858Z,36.37
2018-03-11T00:53:50.649Z,26.27
2018-03-11T00:56:17.470Z,25.67
2018-03-11T00:58:44.284Z,47.53
2018-03-11T01:01:11.098Z,26.30
2018-03-11T01:03:37.870Z,28.70
2018-03-11T01:06:04.687Z,24.73
2018-03-11T01:08:31.483Z,24.23
2018-03-11T01:10:58.273Z,24.53
2018-03-11T01:13:25.034Z,24.13
2018-03-11T01:15:52.830Z,24.60
2018-03-11T01:18:19.639Z,25.60
2018-03-11T01:20:46.441Z,24.87
2018-03-11T01:23:13.235Z,24.30
2018-03-11T01:25:40.005Z,25.77
2018-03-11T01:28:06.807Z,24.87
2018-03-11T01:30:33.573Z,25.43
2018-03-11T01:33:00.353Z,24.10
2018-03-11T01:35:27.118Z,25.87
2018-03-11T01:37:53.878Z,24.63
2018-03-11T01:40:20.657Z,24.03
2018-03-11T01:42:47.414Z,25.67
2018-03-11T01:45:14.195Z,25.53
2018-03-11T01:47:40.991Z,24.40
2018-03-11T01:50:07.788Z,25.70
2018-03-11T01:52:40.706Z,24.17
2018-03-11T01:55:07.482Z,24.53
2018-03-11T01:57:34.250Z,24.77
2018-03-11T02:00:01.046Z,27.37
2018-03-11T02:02:27.820Z,27.07
2018-03-11T02:04:54.586Z,35.23
2018-03-11T02:07:21.394Z,27.20
2018-03-11T02:09:48.160Z,27.87
2018-03-11T02:12:14.962Z,27.53
2018-03-11T02:14:41.736Z,28.90
2018-03-11T02:17:08.630Z,27.30
2018-03-11T02:19:35.394Z,25.97
2018-03-11T02:22:02.203Z,27.37
2018-03-11T02:24:28.966Z,27.60
2018-03-11T02:26:55.732Z,27.70
2018-03-11T02:29:22.529Z,26.27
2018-03-11T02:31:49.954Z,27.70
2018-03-11T02:34:16.880Z,29.57
2018-03-11T02:36:43.788Z,28.83
2018-03-11T02:39:10.572Z,26.87
2018-03-11T02:41:37.346Z,28.53
2018-03-11T02:44:04.126Z,28.07
2018-03-11T02:46:30.896Z,27.50
2018-03-11T02:48:57.710Z,29.20
2018-03-11T02:51:24.486Z,27.73
2018-03-11T02:53:51.261Z,27.17
2018-03-11T02:56:18.045Z,26.67
2018-03-11T02:58:44.986Z,28.80
2018-03-11T03:01:11.929Z,28.40
2018-03-11T03:03:38.878Z,27.63
2018-03-11T03:06:05.644Z,28.47
2018-03-11T03:08:32.411Z,28.57
2018-03-11T03:10:59.210Z,28.13
2018-03-11T03:13:25.975Z,28.53
2018-03-11T03:15:52.882Z,28.87
2018-03-11T03:18:19.716Z,28.53
2018-03-11T03:20:46.491Z,29.40
2018-03-11T03:23:13.254Z,28.37
2018-03-11T03:25:40.015Z,26.10
2018-03-11T03:28:06.792Z,28.40
2018-03-11T03:30:33.574Z,28.77
2018-03-11T03:33:00.411Z,28.50
2018-03-11T03:35:27.185Z,28.17
2018-03-11T03:37:53.953Z,27.30
2018-03-11T03:40:20.722Z,27.17
2018-03-11T03:42:47.501Z,27.67
2018-03-11T03:45:14.305Z,28.63
2018-03-11T03:47:41.077Z,27.93
2018-03-11T03:50:07.875Z,28.23
2018-03-11T03:52:34.679Z,26.17
2018-03-11T03:55:01.935Z,26.50
2018-03-11T03:57:28.759Z,26.10
2018-03-11T03:59:55.524Z,30.23
2018-03-11T04:02:22.302Z,29.67
2018-03-11T04:04:49.086Z,29.13
2018-03-11T04:07:15.882Z,29.67
2018-03-11T04:09:42.647Z,28.47
2018-03-11T04:12:09.541Z,29.17
2018-03-11T04:14:36.347Z,28.07
2018-03-11T04:17:03.151Z,28.53
2018-03-11T04:19:30.042Z,29.40
2018-03-11T04:21:56.843Z,28.60
2018-03-11T04:24:23.774Z,28.43
2018-03-11T04:26:50.566Z,29.37
2018-03-11T04:29:17.379Z,28.93
2018-03-11T04:31:44.142Z,34.13
2018-03-11T04:34:10.930Z,32.23
2018-03-11T04:36:37.770Z,29.07
2018-03-11T04:39:04.579Z,30.90
2018-03-11T04:41:31.384Z,28.37
2018-03-11T04:43:58.199Z,25.27
2018-03-11T04:46:24.978Z,26.40
2018-03-11T04:48:51.757Z,27.73
2018-03-11T04:51:18.547Z,41.07
2018-03-11T04:53:45.348Z,47.03
2018-03-11T04:56:12.122Z,33.33
2018-03-11T04:58:38.963Z,28.00
2018-03-11T05:01:05.767Z,25.97
2018-03-11T05:03:32.576Z,25.67
2018-03-11T05:05:59.565Z,25.33
2018-03-11T05:08:26.633Z,29.23
2018-03-11T05:10:53.399Z,27.00
2018-03-11T05:13:20.187Z,29.47
2018-03-11T05:15:47.030Z,36.43
2018-03-11T05:18:13.804Z,34.77
2018-03-11T05:20:40.596Z,41.57
2018-03-11T05:23:07.449Z,35.27
2018-03-11T05:25:34.244Z,35.40
2018-03-11T05:28:01.029Z,54.23
2018-03-11T05:30:27.803Z,40.47
2018-03-11T05:32:54.622Z,46.43
2018-03-11T05:35:21.398Z,75.17
2018-03-11T05:37:48.207Z,42.00
2018-03-11T05:40:15.135Z,33.63
2018-03-11T05:42:42.269Z,32.00
2018-03-11T05:45:09.175Z,30.63
2018-03-11T05:47:36.018Z,30.30
2018-03-11T05:50:02.838Z,29.57
2018-03-11T05:52:29.609Z,33.10
2018-03-11T05:54:56.414Z,30.43
2018-03-11T05:57:23.198Z,29.50
2018-03-11T05:59:49.982Z,30.33
2018-03-11T06:02:16.786Z,27.87
2018-03-11T06:04:43.543Z,29.80
2018-03-11T06:07:10.318Z,29.37
2018-03-11T06:09:37.067Z,29.73
2018-03-11T06:12:03.842Z,28.97
2018-03-11T06:14:30.611Z,29.97
2018-03-11T06:16:57.470Z,28.63
2018-03-11T06:19:24.246Z,28.13
2018-03-11T06:21:51.041Z,28.93
2018-03-11T06:24:17.830Z,32.60
2018-03-11T06:26:44.668Z,30.67
2018-03-11T06:29:11.450Z,29.03
2018-03-11T06:31:38.356Z,27.90
2018-03-11T06:34:05.145Z,26.47
2018-03-11T06:36:31.925Z,27.23
2018-03-11T06:38:58.773Z,26.00
2018-03-11T06:41:25.554Z,27.87
2018-03-11T06:43:52.323Z,26.67
2018-03-11T06:46:19.114Z,24.77
2018-03-11T06:48:45.944Z,26.10
2018-03-11T06:51:12.752Z,29.17
2018-03-11T06:53:39.513Z,32.93
2018-03-11T06:56:06.305Z,27.83
2018-03-11T06:58:33.114Z,25.60
2018-03-11T07:00:59.919Z,24.30
2018-03-11T07:03:26.720Z,23.37
2018-03-11T07:05:53.511Z,23.07
2018-03-11T07:08:20.323Z,22.47
2018-03-11T07:10:47.142Z,24.93
2018-03-11T07:13:13.957Z,26.70
2018-03-11T07:15:40.763Z,25.57
2018-03-11T07:18:07.613Z,24.37
2018-03-11T07:20:34.419Z,22.87
2018-03-11T07:23:01.210Z,21.93
2018-03-11T07:25:28.027Z,19.73
2018-03-11T07:27:54.799Z,21.07
2018-03-11T07:30:21.596Z,20.73
2018-03-11T07:32:48.444Z,19.93
2018-03-11T07:35:15.295Z,20.03
2018-03-11T07:37:42.074Z,22.57
2018-03-11T07:40:08.841Z,26.90
2018-03-11T07:42:35.658Z,29.43
2018-03-11T07:45:02.469Z,23.93
2018-03-11T07:47:29.284Z,21.60
2018-03-11T07:49:56.084Z,20.23
2018-03-11T07:52:22.891Z,17.73
2018-03-11T07:54:49.678Z,18.33
2018-03-11T07:57:16.447Z,17.93
2018-03-11T07:59:43.256Z,18.63
2018-03-11T08:02:10.163Z,17.97
2018-03-11T08:04:36.992Z,18.60
2018-03-11T08:07:03.827Z,17.90
2018-03-11T08:09:30.658Z,17.40
2018-03-11T08:11:57.450Z,18.43
2018-03-11T08:14:24.230Z,18.77
2018-03-11T08:20:22.809Z,16.73
2018-03-11T08:22:49.851Z,16.63
2018-03-11T08:25:16.632Z,15.60
2018-03-11T08:27:43.408Z,15.80
2018-03-11T08:30:10.245Z,15.07
2018-03-11T08:32:37.058Z,16.20
2018-03-11T08:35:03.841Z,16.17
2018-03-11T08:37:30.665Z,16.77
2018-03-11T08:39:57.474Z,17.00
2018-03-11T08:42:24.285Z,16.37
2018-03-11T08:44:51.074Z,15.70
2018-03-11T08:47:17.866Z,16.97
2018-03-11T08:49:44.754Z,17.90
2018-03-11T08:52:11.525Z,16.63
2018-03-11T08:54:38.329Z,16.43
2018-03-11T08:57:05.132Z,17.30
2018-03-11T08:59:33.148Z,16.00
2018-03-11T09:01:59.992Z,16.13
2018-03-11T09:04:27.127Z,16.57
2018-03-11T09:06:54.049Z,16.63
2018-03-11T09:09:21.040Z,16.63
2018-03-11T09:11:47.904Z,17.10
2018-03-11T09:14:14.733Z,16.13
2018-03-11T09:16:41.576Z,16.20
2018-03-11T09:19:08.397Z,17.60
2018-03-11T09:21:35.232Z,16.87
2018-03-11T09:24:02.135Z,17.03
2018-03-11T09:26:29.076Z,16.80
2018-03-11T09:28:56.050Z,17.50
2018-03-11T09:31:22.884Z,17.40
2018-03-11T09:33:49.724Z,17.33
2018-03-11T09:36:16.635Z,18.47
2018-03-11T09:38:43.480Z,18.03
2018-03-11T09:41:10.315Z,15.93
2018-03-11T09:43:38.228Z,15.47
2018-03-11T09:46:05.472Z,17.17
2018-03-11T09:48:32.324Z,15.80
2018-03-11T09:50:59.171Z,15.97
2018-03-11T09:53:25.947Z,16.03
2018-03-11T09:55:52.735Z,16.00
2018-03-11T09:58:19.533Z,16.40
2018-03-11T10:00:46.364Z,15.37
2018-03-11T10:03:13.199Z,15.93
2018-03-11T10:05:40.042Z,17.33
2018-03-11T10:08:07.039Z,14.50
2018-03-11T10:10:33.915Z,14.37
2018-03-11T10:13:00.788Z,13.40
2018-03-11T10:15:27.710Z,13.37
2018-03-11T10:17:54.557Z,13.03
2018-03-11T10:20:21.385Z,11.80
2018-03-11T10:22:48.238Z,12.87
2018-03-11T10:25:15.088Z,10.83
2018-03-11T10:27:41.966Z,10.27
2018-03-11T10:30:08.846Z,9.97
2018-03-11T10:32:35.707Z,10.40
2018-03-11T10:35:02.518Z,10.40
2018-03-11T10:37:29.386Z,9.70
2018-03-11T10:39:56.300Z,9.93
2018-03-11T10:42:23.063Z,9.30
2018-03-11T10:44:49.907Z,9.13
2018-03-11T10:47:16.730Z,9.40
2018-03-11T10:49:43.584Z,8.73
2018-03-11T10:52:10.472Z,8.40
2018-03-11T10:54:37.470Z,8.33
2018-03-11T10:57:04.303Z,9.63
2018-03-11T10:59:31.111Z,9.03
2018-03-11T11:02:14.782Z,7.70
2018-03-11T11:04:42.376Z,8.23
2018-03-11T11:07:09.214Z,8.03
2018-03-11T11:09:36.090Z,9.00
2018-03-11T11:12:02.879Z,7.70
2018-03-11T11:14:30.504Z,7.93
2018-03-11T11:16:57.352Z,8.17
2018-03-11T11:19:24.162Z,8.60
2018-03-11T11:21:50.929Z,10.43
2018-03-11T11:24:17.750Z,12.93
2018-03-11T11:26:44.559Z,12.10
2018-03-11T11:29:11.322Z,12.30
2018-03-11T11:31:38.130Z,13.33
2018-03-11T11:34:04.938Z,15.13
2018-03-11T11:36:31.734Z,14.30
2018-03-11T11:38:58.980Z,17.73
2018-03-11T11:41:25.836Z,17.23
2018-03-11T11:43:52.637Z,15.73
2018-03-11T11:46:19.535Z,15.60
2018-03-11T11:48:46.387Z,16.23
2018-03-11T11:51:13.162Z,15.33
2018-03-11T11:53:40.135Z,17.27
2018-03-11T11:56:06.957Z,16.47
2018-03-11T11:58:33.753Z,16.17
2018-03-11T12:01:00.567Z,16.67
2018-03-11T12:03:27.365Z,14.77
2018-03-11T12:05:54.197Z,15.63
2018-03-11T12:08:21.025Z,14.80
2018-03-11T12:10:47.838Z,14.53
2018-03-11T12:13:14.653Z,14.70
2018-03-11T12:15:41.453Z,16.50
2018-03-11T12:18:08.234Z,14.20
2018-03-11T12:20:35.044Z,13.83
2018-03-11T12:23:01.855Z,13.70
2018-03-11T12:25:28.645Z,13.23
2018-03-11T12:27:55.460Z,12.93
2018-03-11T12:30:22.250Z,12.57
2018-03-11T12:32:49.038Z,12.23
2018-03-11T12:35:15.974Z,13.50
2018-03-11T12:37:43.580Z,12.50
2018-03-11T12:40:10.391Z,13.23
2018-03-11T12:42:38.110Z,12.30
2018-03-11T12:45:04.920Z,13.40
2018-03-11T12:47:31.706Z,14.87
2018-03-11T12:49:58.622Z,14.57
2018-03-11T12:52:25.423Z,12.53
2018-03-11T12:54:52.243Z,11.33
2018-03-11T12:57:19.045Z,12.60
2018-03-11T12:59:45.845Z,12.13
2018-03-11T13:02:12.755Z,12.10
2018-03-11T13:04:39.621Z,12.10
2018-03-11T13:07:06.431Z,11.37
2018-03-11T13:09:33.190Z,10.93
2018-03-11T13:12:00.011Z,11.37
2018-03-11T13:14:26.801Z,12.03
2018-03-11T13:16:53.666Z,13.97
2018-03-11T13:19:20.471Z,13.17
2018-03-11T13:21:47.290Z,13.40
2018-03-11T13:24:14.091Z,11.80
2018-03-11T13:26:40.938Z,11.23
2018-03-11T13:29:07.733Z,10.17
2018-03-11T13:31:34.523Z,11.67
2018-03-11T13:34:07.258Z,11.23
2018-03-11T13:36:34.058Z,10.80
2018-03-11T13:39:06.642Z,9.53
2018-03-11T13:41:33.414Z,9.90
2018-03-11T13:44:00.280Z,9.17
2018-03-11T13:46:33.050Z,9.17
2018-03-11T13:48:59.825Z,8.90
2018-03-11T13:51:32.560Z,9.10
2018-03-11T13:53:59.542Z,10.07
2018-03-11T13:56:26.688Z,9.57
2018-03-11T13:58:53.478Z,9.70
2018-03-11T14:01:20.343Z,10.00
2018-03-11T14:03:47.111Z,8.43
2018-03-11T14:06:13.903Z,9.43
2018-03-11T14:08:40.691Z,8.20
2018-03-11T14:11:07.584Z,8.43
2018-03-11T14:13:34.421Z,7.60
2018-03-11T14:16:01.199Z,8.27
2018-03-11T14:18:27.962Z,8.10
2018-03-11T14:20:54.759Z,8.37
2018-03-11T14:23:21.538Z,8.37
2018-03-11T14:25:48.371Z,9.50
2018-03-11T14:28:15.146Z,9.40
2018-03-11T14:30:41.969Z,10.30
2018-03-11T14:33:08.770Z,9.57
2018-03-11T14:35:35.523Z,9.87
2018-03-11T14:38:02.306Z,9.13
2018-03-11T14:40:29.074Z,9.43
2018-03-11T14:42:56.288Z,8.60
2018-03-11T14:45:23.464Z,9.27
2018-03-11T14:47:50.262Z,7.80
2018-03-11T14:50:17.054Z,7.63
2018-03-11T14:52:43.998Z,7.90
2018-03-11T14:55:10.785Z,8.03
2018-03-11T14:57:37.587Z,8.10
2018-03-11T15:00:05.219Z,7.20
2018-03-11T15:02:31.999Z,8.37
2018-03-11T15:04:58.824Z,7.30
2018-03-11T15:07:26.327Z,7.70
2018-03-11T15:09:53.198Z,7.70
2018-03-11T15:12:19.969Z,8.40
2018-03-11T15:14:46.769Z,9.07
2018-03-11T15:17:13.685Z,8.83
2018-03-11T15:19:48.787Z,9.47
2018-03-11T15:22:15.594Z,9.00
2018-03-11T15:24:42.382Z,8.57
2018-03-11T15:27:09.192Z,9.83
2018-03-11T15:29:36.553Z,9.90
2018-03-11T15:32:03.375Z,9.30
2018-03-11T15:34:30.162Z,8.83
2018-03-11T15:36:56.947Z,9.63
2018-03-11T15:39:23.748Z,9.13
2018-03-11T15:41:50.551Z,8.53
2018-03-11T15:44:17.390Z,9.00
2018-03-11T15:46:44.185Z,8.67
2018-03-11T15:49:10.975Z,7.93
2018-03-11T15:51:37.757Z,8.33
2018-03-11T15:54:04.572Z,8.50
2018-03-11T15:56:31.341Z,9.80
2018-03-11T15:58:58.113Z,9.73
2018-03-11T16:01:24.957Z,10.20
2018-03-11T16:03:51.815Z,10.67
2018-03-11T16:06:18.594Z,10.17
2018-03-11T16:08:45.400Z,10.30
2018-03-11T16:11:12.172Z,9.83
2018-03-11T16:13:38.982Z,10.53
2018-03-11T16:16:05.802Z,11.03
2018-03-11T16:18:32.602Z,10.43
2018-03-11T16:20:59.410Z,11.83
2018-03-11T16:23:26.229Z,12.23
2018-03-11T16:25:53.024Z,14.63
2018-03-11T16:28:19.801Z,14.53
2018-03-11T16:30:46.777Z,12.33
2018-03-11T16:33:13.575Z,11.10
2018-03-11T16:35:40.382Z,11.83
2018-03-11T16:38:07.154Z,12.37
2018-03-11T16:40:34.665Z,14.83
2018-03-11T16:43:01.477Z,15.53
2018-03-11T16:45:32.007Z,15.83
2018-03-11T16:47:58.818Z,16.00
2018-03-11T16:50:25.658Z,20.57
2018-03-11T16:52:52.701Z,21.93
2018-03-11T16:55:19.522Z,20.63
2018-03-11T16:57:46.358Z,20.10
2018-03-11T17:00:13.172Z,22.83
2018-03-11T17:02:39.998Z,21.73
2018-03-11T17:05:06.819Z,18.17
2018-03-11T17:07:33.759Z,19.70
2018-03-11T17:10:00.735Z,18.03
2018-03-11T17:12:28.444Z,17.47
2018-03-11T17:14:55.772Z,14.47
2018-03-11T17:17:22.590Z,14.53
2018-03-11T17:19:49.734Z,15.83
2018-03-11T17:22:16.588Z,27.17
2018-03-11T17:24:43.390Z,44.33
2018-03-11T17:27:10.287Z,15.33
2018-03-11T17:29:37.142Z,16.27
2018-03-11T17:32:03.948Z,16.30
2018-03-11T17:36:05.403Z,21.85
2018-03-11T17:38:43.363Z,20.92
2018-03-11T17:41:11.702Z,20.50
2018-03-11T17:43:47.207Z,22.83
2018-03-11T17:46:24.354Z,17.17
2018-03-11T17:48:51.752Z,18.93
2018-03-11T17:51:18.579Z,21.77
2018-03-11T17:53:45.466Z,22.07
2018-03-11T17:56:12.244Z,26.50
2018-03-11T17:58:39.950Z,25.87
2018-03-11T18:01:06.738Z,23.07
2018-03-11T18:03:33.577Z,25.63
2018-03-11T18:06:00.424Z,36.30
2018-03-11T18:08:27.225Z,32.13
2018-03-11T18:10:54.038Z,26.60
2018-03-11T18:13:20.855Z,26.33
2018-03-11T18:15:47.738Z,30.77
2018-03-11T18:18:14.627Z,23.53
2018-03-11T18:20:41.486Z,21.93
2018-03-11T18:23:08.287Z,20.50
2018-03-11T18:25:35.096Z,20.23
2018-03-11T18:28:01.932Z,21.37
2018-03-11T18:30:28.782Z,19.90
2018-03-11T18:32:55.637Z,19.27
2018-03-11T18:35:23.128Z,20.57
2018-03-11T18:37:49.958Z,19.27
2018-03-11T18:40:16.813Z,20.37
2018-03-11T18:42:43.621Z,21.17
2018-03-11T18:45:10.488Z,21.80
2018-03-11T18:47:38.101Z,19.67
2018-03-11T18:50:04.955Z,20.17
2018-03-11T18:52:31.757Z,21.00
2018-03-11T18:54:58.588Z,20.57
2018-03-11T18:57:25.395Z,21.27
2018-03-11T18:59:52.231Z,25.93
2018-03-11T19:02:19.195Z,25.53
2018-03-11T19:04:46.818Z,28.17
2018-03-11T19:07:15.920Z,28.60
2018-03-11T19:09:43.884Z,30.17
2018-03-11T19:12:12.779Z,30.60
2018-03-11T19:14:39.889Z,26.93
2018-03-11T19:17:07.595Z,26.10
2018-03-11T19:19:35.415Z,31.53
2018-03-11T19:22:03.972Z,35.43
2018-03-11T19:24:31.145Z,32.70
2018-03-11T19:26:59.859Z,27.63
2018-03-11T19:29:30.823Z,28.27
2018-03-11T19:32:03.371Z,29.53
2018-03-11T19:34:31.509Z,26.40
2018-03-11T19:36:59.196Z,25.43
2018-03-11T19:39:27.595Z,27.53
2018-03-11T19:41:55.155Z,26.90
2018-03-11T19:44:23.675Z,29.73
2018-03-11T19:46:50.612Z,28.50
2018-03-11T19:49:20.851Z,28.60
2018-03-11T19:51:49.397Z,26.53
2018-03-11T19:54:17.126Z,24.33
2018-03-11T19:56:44.399Z,22.43
2018-03-11T19:59:11.338Z,23.60
2018-03-11T20:01:39.701Z,24.10
2018-03-11T20:04:06.949Z,24.13
2018-03-11T20:06:34.762Z,25.47
2018-03-11T20:09:03.916Z,24.97
2018-03-11T20:11:36.705Z,32.67
2018-03-11T20:14:05.344Z,24.47
2018-03-11T20:16:36.326Z,24.30
2018-03-11T20:19:06.205Z,23.83
2018-03-11T20:21:38.464Z,30.27
2018-03-11T20:24:06.203Z,22.57
2018-03-11T20:26:37.797Z,29.43
2018-03-11T20:29:04.631Z,29.47
2018-03-11T20:31:36.084Z,33.00
2018-03-11T20:34:17.265Z,66.23
2018-03-11T20:36:44.120Z,70.93
2018-03-11T20:39:13.808Z,48.07
2018-03-11T20:41:41.123Z,37.97
2018-03-11T20:44:12.183Z,36.07
2018-03-11T20:46:39.740Z,34.97
2018-03-11T20:49:09.706Z,33.77
2018-03-11T20:51:36.888Z,34.67
2018-03-11T20:54:10.613Z,34.90
2018-03-11T20:56:37.474Z,34.77
2018-03-11T20:59:06.941Z,37.03
2018-03-11T21:01:37.354Z,35.80
2018-03-11T21:04:04.590Z,36.77
2018-03-11T21:06:31.639Z,40.53
2018-03-11T21:08:59.737Z,38.83
2018-03-11T21:11:27.624Z,41.20
2018-03-11T21:13:55.272Z,41.83
2018-03-11T21:16:22.100Z,43.50
2018-03-11T21:18:48.920Z,41.13
2018-03-11T21:21:15.767Z,38.23
2018-03-11T21:23:43.370Z,38.97
2018-03-11T21:26:10.219Z,51.13
2018-03-11T21:28:37.034Z,43.60
2018-03-11T21:31:05.126Z,45.57
2018-03-11T21:33:33.378Z,42.87
2018-03-11T21:36:01.355Z,36.97
2018-03-11T21:38:28.196Z,33.77
2018-03-11T21:40:55.028Z,35.50
2018-03-11T21:43:21.898Z,32.93
2018-03-11T21:45:48.721Z,32.60
2018-03-11T21:48:15.545Z,33.60
2018-03-11T21:50:42.384Z,32.93
2018-03-11T21:53:09.385Z,32.70
2018-03-11T21:55:36.198Z,32.50
2018-03-11T21:58:03.324Z,46.43
2018-03-11T22:00:30.150Z,31.60
2018-03-11T22:02:56.984Z,40.87
2018-03-11T22:05:23.779Z,29.23
2018-03-11T22:07:53.665Z,27.83
2018-03-11T22:10:20.483Z,38.23
2018-03-11T22:12:47.312Z,41.77
2018-03-11T22:15:14.653Z,34.97
2018-03-11T22:17:41.554Z,28.57
2018-03-11T22:20:08.395Z,29.47
2018-03-11T22:22:35.195Z,26.77
2018-03-11T22:25:02.009Z,26.83
2018-03-11T22:27:39.097Z,27.60
2018-03-11T22:30:07.179Z,25.77
2018-03-11T22:32:36.925Z,23.07
2018-03-11T22:35:04.407Z,22.73
2018-03-11T22:37:31.194Z,22.50
2018-03-11T22:40:01.128Z,23.20
2018-03-11T22:42:28.446Z,22.70
2018-03-11T22:44:55.302Z,23.37
2018-03-11T22:47:23.204Z,26.13
2018-03-11T22:52:48.469Z,23.47
2018-03-11T22:55:17.707Z,23.30
2018-03-11T22:58:03.491Z,23.57
2018-03-11T23:00:32.382Z,22.07
2018-03-11T23:02:59.203Z,22.87
2018-03-11T23:05:26.284Z,23.53
2018-03-11T23:07:53.335Z,21.77
2018-03-11T23:10:20.121Z,21.57
2018-03-11T23:12:47.010Z,21.97
2018-03-11T23:15:13.791Z,23.27
2018-03-11T23:17:40.579Z,22.40
2018-03-11T23:20:07.524Z,21.40
2018-03-11T23:22:34.374Z,21.03
2018-03-11T23:25:02.155Z,19.47
2018-03-11T23:27:30.794Z,20.00
2018-03-11T23:29:57.609Z,18.90
2018-03-11T23:32:24.399Z,17.70
2018-03-11T23:34:51.245Z,19.13
2018-03-11T23:37:18.499Z,18.67
2018-03-11T23:39:45.300Z,19.57
2018-03-11T23:42:12.132Z,20.53
2018-03-11T23:44:38.943Z,20.27
2018-03-11T23:47:06.010Z,21.40
2018-03-11T23:49:32.940Z,19.60
2018-03-11T23:51:59.899Z,21.13
2018-03-11T23:54:26.664Z,18.33
2018-03-11T23:56:53.454Z,20.17
2018-03-11T23:59:20.361Z,18.97
